Time;durP1;ratioP1;P1;durP2;ratioP2;P2;SDS_P1;SDS_P2;PMS_P1;PMS_P2;Temp;Humidity;BMP_temperature;BMP_pressure;BME280_temperature;BME280_humidity;BME280_pressure;Samples;Min_cycle;Max_cycle;Signal;HPM_P1;HPM_P2
2022/09/07 00:01:20;;;;;;;2;1.4;;;;;;;;;;;;;
2022/09/07 00:03:45;;;;;;;2.7;1.5;;;;;;;;;;;;;
2022/09/07 00:06:12;;;;;;;3.1;1.5;;;;;;;;;;;;;
2022/09/07 00:08:37;;;;;;;1.3;1.2;;;;;;;;;;;;;
2022/09/07 00:11:03;;;;;;;2.8;1.5;;;;;;;;;;;;;
2022/09/07 00:13:29;;;;;;;2.2;1.3;;;;;;;;;;;;;
2022/09/07 00:15:56;;;;;;;2.7;1.4;;;;;;;;;;;;;
2022/09/07 00:18:21;;;;;;;1.6;1.4;;;;;;;;;;;;;
2022/09/07 00:20:46;;;;;;;1.8;1.3;;;;;;;;;;;;;
2022/09/07 00:23:12;;;;;;;2.9;1.3;;;;;;;;;;;;;
2022/09/07 00:25:38;;;;;;;2.4;1.8;;;;;;;;;;;;;
2022/09/07 00:28:02;;;;;;;1.6;1.4;;;;;;;;;;;;;
2022/09/07 00:30:27;;;;;;;2.2;1.4;;;;;;;;;;;;;
2022/09/07 00:32:52;;;;;;;2.3;1.6;;;;;;;;;;;;;
2022/09/07 00:35:17;;;;;;;2.9;1.6;;;;;;;;;;;;;
2022/09/07 00:37:42;;;;;;;1.6;1.3;;;;;;;;;;;;;
2022/09/07 00:40:08;;;;;;;3.7;1.4;;;;;;;;;;;;;
2022/09/07 00:42:33;;;;;;;2.3;1.4;;;;;;;;;;;;;
2022/09/07 00:44:58;;;;;;;3.8;1.4;;;;;;;;;;;;;
2022/09/07 00:47:25;;;;;;;1.9;1.4;;;;;;;;;;;;;
2022/09/07 00:49:50;;;;;;;1.8;1.5;;;;;;;;;;;;;
2022/09/07 00:52:15;;;;;;;1.9;1.4;;;;;;;;;;;;;
2022/09/07 00:54:40;;;;;;;2;1.5;;;;;;;;;;;;;
2022/09/07 00:57:05;;;;;;;2;1.8;;;;;;;;;;;;;
2022/09/07 00:59:31;;;;;;;3.7;1.6;;;;;;;;;;;;;
2022/09/07 01:01:56;;;;;;;2.4;1.4;;;;;;;;;;;;;
2022/09/07 01:04:21;;;;;;;1.6;1.5;;;;;;;;;;;;;
2022/09/07 01:06:47;;;;;;;4.7;1.3;;;;;;;;;;;;;
2022/09/07 01:09:12;;;;;;;2;1.5;;;;;;;;;;;;;
2022/09/07 01:11:37;;;;;;;4.1;1.5;;;;;;;;;;;;;
2022/09/07 01:14:02;;;;;;;2.4;1.6;;;;;;;;;;;;;
2022/09/07 01:16:27;;;;;;;3.1;2;;;;;;;;;;;;;
2022/09/07 01:18:53;;;;;;;2.2;1.6;;;;;;;;;;;;;
2022/09/07 01:21:20;;;;;;;2.4;1.4;;;;;;;;;;;;;
2022/09/07 01:23:45;;;;;;;3.2;1.8;;;;;;;;;;;;;
2022/09/07 01:26:12;;;;;;;3.1;1.8;;;;;;;;;;;;;
2022/09/07 01:28:37;;;;;;;3.7;1.5;;;;;;;;;;;;;
2022/09/07 01:31:02;;;;;;;3.2;1.4;;;;;;;;;;;;;
2022/09/07 01:33:27;;;;;;;2.8;1.5;;;;;;;;;;;;;
2022/09/07 01:35:53;;;;;;;2.4;1.7;;;;;;;;;;;;;
2022/09/07 01:38:18;;;;;;;2.8;1.5;;;;;;;;;;;;;
2022/09/07 01:40:43;;;;;;;3.3;1.7;;;;;;;;;;;;;
2022/09/07 01:43:08;;;;;;;2.5;1.5;;;;;;;;;;;;;
2022/09/07 01:45:33;;;;;;;2.6;1.5;;;;;;;;;;;;;
2022/09/07 01:48:00;;;;;;;2.8;1.5;;;;;;;;;;;;;
2022/09/07 01:50:25;;;;;;;3.2;1.9;;;;;;;;;;;;;
2022/09/07 01:52:51;;;;;;;1.6;1.5;;;;;;;;;;;;;
2022/09/07 01:55:16;;;;;;;2.4;1.7;;;;;;;;;;;;;
2022/09/07 01:57:43;;;;;;;3.6;1.7;;;;;;;;;;;;;
2022/09/07 02:00:09;;;;;;;2.8;1.9;;;;;;;;;;;;;
2022/09/07 02:02:35;;;;;;;2.8;1.8;;;;;;;;;;;;;
2022/09/07 02:05:00;;;;;;;1.7;1.3;;;;;;;;;;;;;
2022/09/07 02:07:26;;;;;;;4.9;1.6;;;;;;;;;;;;;
2022/09/07 02:09:52;;;;;;;1.7;1.5;;;;;;;;;;;;;
2022/09/07 02:12:17;;;;;;;3.9;1.9;;;;;;;;;;;;;
2022/09/07 02:14:42;;;;;;;1.8;1.4;;;;;;;;;;;;;
2022/09/07 02:17:08;;;;;;;2.1;1.4;;;;;;;;;;;;;
2022/09/07 02:19:33;;;;;;;2.1;1.4;;;;;;;;;;;;;
2022/09/07 02:21:58;;;;;;;1.5;1.4;;;;;;;;;;;;;
2022/09/07 02:24:24;;;;;;;1.7;1.5;;;;;;;;;;;;;
2022/09/07 02:26:50;;;;;;;1.7;1.6;;;;;;;;;;;;;
2022/09/07 02:29:14;;;;;;;1.6;1.5;;;;;;;;;;;;;
2022/09/07 02:31:39;;;;;;;2.3;1.6;;;;;;;;;;;;;
2022/09/07 02:34:06;;;;;;;3;1.4;;;;;;;;;;;;;
2022/09/07 02:36:31;;;;;;;2.6;1.6;;;;;;;;;;;;;
2022/09/07 02:38:56;;;;;;;2.8;1.3;;;;;;;;;;;;;
2022/09/07 02:41:21;;;;;;;2.1;1.6;;;;;;;;;;;;;
2022/09/07 02:43:46;;;;;;;2.4;1.4;;;;;;;;;;;;;
2022/09/07 02:46:13;;;;;;;3.4;1.6;;;;;;;;;;;;;
2022/09/07 02:48:38;;;;;;;2;1.7;;;;;;;;;;;;;
2022/09/07 02:51:04;;;;;;;2.1;1.6;;;;;;;;;;;;;
2022/09/07 02:53:29;;;;;;;3.9;1.8;;;;;;;;;;;;;
2022/09/07 02:55:54;;;;;;;13.1;11.8;;;;;;;;;;;;;
2022/09/07 02:58:19;;;;;;;3.8;2.1;;;;;;;;;;;;;
2022/09/07 03:00:45;;;;;;;3.3;2.2;;;;;;;;;;;;;
2022/09/07 03:03:10;;;;;;;2.4;1.5;;;;;;;;;;;;;
2022/09/07 03:05:40;;;;;;;2.3;1.7;;;;;;;;;;;;;
2022/09/07 03:08:05;;;;;;;2.9;1.8;;;;;;;;;;;;;
2022/09/07 03:10:31;;;;;;;1.9;1.6;;;;;;;;;;;;;
2022/09/07 03:12:56;;;;;;;3.6;1.7;;;;;;;;;;;;;
2022/09/07 03:15:24;;;;;;;2.7;1.5;;;;;;;;;;;;;
2022/09/07 03:17:49;;;;;;;2.1;1.5;;;;;;;;;;;;;
2022/09/07 03:20:18;;;;;;;2.5;1.6;;;;;;;;;;;;;
2022/09/07 03:22:47;;;;;;;2.5;1.7;;;;;;;;;;;;;
2022/09/07 03:25:12;;;;;;;2.8;1.6;;;;;;;;;;;;;
2022/09/07 03:27:40;;;;;;;2;1.8;;;;;;;;;;;;;
2022/09/07 03:30:05;;;;;;;2.1;1.5;;;;;;;;;;;;;
2022/09/07 03:32:33;;;;;;;3.9;2.1;;;;;;;;;;;;;
2022/09/07 03:34:58;;;;;;;4.4;2.2;;;;;;;;;;;;;
2022/09/07 03:37:23;;;;;;;3.1;2;;;;;;;;;;;;;
2022/09/07 03:39:48;;;;;;;4.8;2.2;;;;;;;;;;;;;
2022/09/07 03:42:15;;;;;;;3.7;2;;;;;;;;;;;;;
2022/09/07 03:44:40;;;;;;;3.8;2.3;;;;;;;;;;;;;
2022/09/07 03:47:06;;;;;;;2.4;1.7;;;;;;;;;;;;;
2022/09/07 03:49:31;;;;;;;2.5;1.8;;;;;;;;;;;;;
2022/09/07 03:51:57;;;;;;;3.6;1.7;;;;;;;;;;;;;
2022/09/07 03:54:23;;;;;;;2.2;1.7;;;;;;;;;;;;;
2022/09/07 03:56:48;;;;;;;2.7;1.9;;;;;;;;;;;;;
2022/09/07 03:59:13;;;;;;;2;1.8;;;;;;;;;;;;;
2022/09/07 04:02:34;;;;;;;2;1.7;;;;;;;16.92;97.84668;938.3178;;;;
2022/09/07 04:05:03;;;;;;;2.9;1.7;;;;;;;16.85;97.45996;938.3067;;;;
2022/09/07 04:07:29;;;;;;;2.6;2.1;;;;;;;16.78;97.80078;938.2649;;;;
2022/09/07 04:09:58;;;;;;;3.4;2.1;;;;;;;16.77;97.97266;938.3431;;;;
2022/09/07 04:12:24;;;;;;;2.6;2.2;;;;;;;16.81;98.05078;938.3908;;;;
2022/09/07 04:14:49;;;;;;;4.7;2.4;;;;;;;16.84;97.9541;938.2787;;;;
2022/09/07 04:17:16;;;;;;;4;2.4;;;;;;;16.97;97.24121;938.3155;;;;
2022/09/07 04:19:41;;;;;;;3.4;2.7;;;;;;;16.94;97.6748;938.4286;;;;
2022/09/07 04:22:10;;;;;;;4;2.5;;;;;;;17.04;97.47949;938.4426;;;;
2022/09/07 04:24:35;;;;;;;3.3;1.9;;;;;;;17.09;97.25684;938.4636;;;;
2022/09/07 04:27:00;;;;;;;2.4;1.9;;;;;;;17.15;97.0166;938.4852;;;;
2022/09/07 04:29:29;;;;;;;3.4;1.9;;;;;;;17.17;96.96191;938.3617;;;;
2022/09/07 04:31:59;;;;;;;2;1.6;;;;;;;17.16;96.53125;938.4511;;;;
2022/09/07 04:34:24;;;;;;;3.3;1.9;;;;;;;17.17;96.06934;938.4294;;;;
2022/09/07 04:36:53;;;;;;;1.6;1.5;;;;;;;17.14;96.06348;938.3839;;;;
2022/09/07 04:39:18;;;;;;;2.5;1.6;;;;;;;17.18;95.72363;938.3994;;;;
2022/09/07 04:41:45;;;;;;;2.9;1.8;;;;;;;17.04;96.6543;938.4016;;;;
2022/09/07 04:44:10;;;;;;;1.7;1.6;;;;;;;17.17;96.08105;938.4084;;;;
2022/09/07 04:46:39;;;;;;;2.1;1.8;;;;;;;17.26;95.83398;938.4572;;;;
2022/09/07 04:49:04;;;;;;;2.8;1.7;;;;;;;17.31;95.45215;938.4177;;;;
2022/09/07 04:51:32;;;;;;;4.6;1.7;;;;;;;17.24;95.49414;938.3995;;;;
2022/09/07 04:53:57;;;;;;;3;1.5;;;;;;;17.24;95.62207;938.4438;;;;
2022/09/07 04:56:26;;;;;;;1.8;1.7;;;;;;;17.2;95.61133;938.4675;;;;
2022/09/07 04:58:51;;;;;;;3.2;1.8;;;;;;;17.11;96.06738;938.5542;;;;
2022/09/07 05:01:20;;;;;;;2.2;1.9;;;;;;;17.15;96.27441;938.552;;;;
2022/09/07 05:03:45;;;;;;;1.7;1.6;;;;;;;17.26;95.26563;938.5248;;;;
2022/09/07 05:06:10;;;;;;;3.3;1.9;;;;;;;17.38;95.14063;938.5366;;;;
2022/09/07 05:08:40;;;;;;;2.2;1.7;;;;;;;17.45;94.99414;938.5574;;;;
2022/09/07 05:11:04;;;;;;;1.7;1.6;;;;;;;17.48;95.02539;938.639;;;;
2022/09/07 05:13:32;;;;;;;3.1;1.8;;;;;;;17.52;94.55762;938.5772;;;;
2022/09/07 05:15:57;;;;;;;3.2;1.9;;;;;;;17.35;95.51758;938.5644;;;;
2022/09/07 05:18:26;;;;;;;2.5;1.8;;;;;;;17.02;95.63281;938.6279;;;;
2022/09/07 05:20:51;;;;;;;3.2;1.9;;;;;;;17.02;95.98926;938.5926;;;;
2022/09/07 05:23:16;;;;;;;2.1;1.9;;;;;;;17.17;95.0957;938.6097;;;;
2022/09/07 05:25:41;;;;;;;2.3;1.6;;;;;;;17.24;94.75195;938.5211;;;;
2022/09/07 05:28:08;;;;;;;2.5;1.5;;;;;;;17.19;94.64746;938.4998;;;;
2022/09/07 05:30:33;;;;;;;2.7;1.8;;;;;;;17.15;96.13477;938.5247;;;;
2022/09/07 05:33:01;;;;;;;3.1;1.8;;;;;;;17.27;95.48828;938.4964;;;;
2022/09/07 05:35:26;;;;;;;3.9;2;;;;;;;17.39;95.43262;938.5574;;;;
2022/09/07 05:37:53;;;;;;;4.4;2.3;;;;;;;17.53;94.53613;938.515;;;;
2022/09/07 05:40:18;;;;;;;4.7;2.5;;;;;;;17.68;94.17188;938.6209;;;;
2022/09/07 05:42:48;;;;;;;5.9;2.8;;;;;;;17.83;93.86621;938.5881;;;;
2022/09/07 05:45:14;;;;;;;7.5;3.4;;;;;;;17.87;92.98242;938.6228;;;;
2022/09/07 05:47:42;;;;;;;4.9;2.8;;;;;;;17.87;92.26465;938.6219;;;;
2022/09/07 05:50:07;;;;;;;5.5;2.9;;;;;;;18.03;92.06445;938.6426;;;;
2022/09/07 05:52:36;;;;;;;7.7;3;;;;;;;18.15;91.8916;938.6581;;;;
2022/09/07 05:55:01;;;;;;;4.9;2.9;;;;;;;18.29;91.46777;938.6476;;;;
2022/09/07 05:57:28;;;;;;;5.8;3.1;;;;;;;18.43;90.68262;938.6146;;;;
2022/09/07 05:59:54;;;;;;;2.8;2;;;;;;;18.58;89.93457;938.622;;;;
2022/09/07 06:02:22;;;;;;;6.4;2.1;;;;;;;18.69;89.74707;938.7018;;;;
2022/09/07 06:04:48;;;;;;;4.9;2.3;;;;;;;19.1;88.84082;938.6409;;;;
2022/09/07 06:07:14;;;;;;;1.9;1.7;;;;;;;20.27;82.13086;938.6726;;;;
2022/09/07 06:09:39;;;;;;;2.6;1.8;;;;;;;20.89;76.49609;938.7022;;;;
2022/09/07 06:12:08;;;;;;;3.3;1.7;;;;;;;20.84;77.0459;938.7079;;;;
2022/09/07 06:14:33;;;;;;;1.9;1.7;;;;;;;20.55;76.20117;938.7065;;;;
2022/09/07 06:17:01;;;;;;;3.5;2.6;;;;;;;20.53;77.91504;938.666;;;;
2022/09/07 06:19:26;;;;;;;3.7;2;;;;;;;21.07;75.36719;938.7247;;;;
2022/09/07 06:21:52;;;;;;;2.3;1.2;;;;;;;21.68;72.53125;938.6728;;;;
2022/09/07 06:24:17;;;;;;;2.4;1.2;;;;;;;21.46;71.03223;938.6559;;;;
2022/09/07 06:26:43;;;;;;;3.1;1.5;;;;;;;21.17;74.62402;938.6707;;;;
2022/09/07 06:29:08;;;;;;;4.1;1.6;;;;;;;20.81;76.15332;938.7383;;;;
2022/09/07 06:31:35;;;;;;;4.1;1.5;;;;;;;20.32;76.67676;938.7683;;;;
2022/09/07 06:34:00;;;;;;;3;1.6;;;;;;;20.41;79.0625;938.7855;;;;
2022/09/07 06:36:30;;;;;;;2.9;1.2;;;;;;;20.42;76.35352;938.7927;;;;
2022/09/07 06:38:55;;;;;;;1.6;1.5;;;;;;;19.98;77.86523;938.818;;;;
2022/09/07 06:41:20;;;;;;;3;1.4;;;;;;;20.14;76.35156;938.8077;;;;
2022/09/07 06:43:45;;;;;;;2.1;1.3;;;;;;;20.15;75.67773;938.8477;;;;
2022/09/07 06:46:14;;;;;;;4.2;2;;;;;;;20.45;76.89551;938.8681;;;;
2022/09/07 06:48:39;;;;;;;3;1.5;;;;;;;20.83;76.60059;938.8619;;;;
2022/09/07 06:51:08;;;;;;;2.4;1.7;;;;;;;21.14;75.00391;938.8733;;;;
2022/09/07 06:53:33;;;;;;;2.2;1.5;;;;;;;21.27;73.70508;938.8948;;;;
2022/09/07 06:55:58;;;;;;;2.8;1.5;;;;;;;21.36;73.79004;938.8445;;;;
2022/09/07 06:58:25;;;;;;;4.1;1.5;;;;;;;21.52;72.64453;938.8552;;;;
2022/09/07 07:01:32;;;;;;;2.6;1.5;;;;;;;21.66;70.71289;938.8453;;;;
2022/09/07 07:03:56;;;;;;;3.5;1.5;;;;;;;21.65;72.21191;938.8121;;;;
2022/09/07 07:06:22;;;;;;;1.8;1.3;;;;;;;21.62;70.98828;938.8267;;;;
2022/09/07 07:08:50;;;;;;;3.6;1.6;;;;;;;21.69;71.2207;938.8094;;;;
2022/09/07 07:11:15;;;;;;;2;1.3;;;;;;;21.5;70.82715;938.7894;;;;
2022/09/07 07:13:45;;;;;;;2.4;1.3;;;;;;;21.53;74.11133;938.8223;;;;
2022/09/07 07:16:10;;;;;;;3.8;1.9;;;;;;;21.67;71.28906;938.8406;;;;
2022/09/07 07:18:37;;;;;;;5.4;1.8;;;;;;;21.79;71.4707;938.79;;;;
2022/09/07 07:21:02;;;;;;;4.6;1.7;;;;;;;21.7;73.37695;938.8569;;;;
2022/09/07 07:23:30;;;;;;;4.3;1.6;;;;;;;21.7;72.17188;938.8535;;;;
2022/09/07 07:25:55;;;;;;;5.4;1.3;;;;;;;21.63;71.68066;938.8753;;;;
2022/09/07 07:28:22;;;;;;;4;1.6;;;;;;;21.61;72.3916;938.8999;;;;
2022/09/07 07:30:46;;;;;;;3.4;1.9;;;;;;;21.33;73.24707;938.8372;;;;
2022/09/07 07:33:13;;;;;;;2.7;1.7;;;;;;;21.38;74.76563;938.8616;;;;
2022/09/07 07:35:38;;;;;;;3.4;1.6;;;;;;;21.19;72.24023;938.9285;;;;
2022/09/07 07:38:06;;;;;;;85.3;27.4;;;;;;;20.83;72.47363;938.9486;;;;
2022/09/07 07:40:32;;;;;;;333.6;120;;;;;;;20.85;73.90332;938.9512;;;;
2022/09/07 07:43:02;;;;;;;74;25.6;;;;;;;20.98;73.1543;938.9464;;;;
2022/09/07 07:45:29;;;;;;;128;44.7;;;;;;;21.03;73.34863;938.9576;;;;
2022/09/07 07:47:54;;;;;;;4.8;2.5;;;;;;;20.92;70.19727;938.9678;;;;
2022/09/07 07:50:22;;;;;;;2.3;1.5;;;;;;;20.61;71.2832;938.9589;;;;
2022/09/07 07:52:47;;;;;;;5.7;2.5;;;;;;;20.58;74.08008;938.9786;;;;
2022/09/07 07:55:15;;;;;;;4.1;1.9;;;;;;;20.83;74.36719;938.9615;;;;
2022/09/07 07:57:40;;;;;;;6.3;1.8;;;;;;;20.89;74.74023;939.0682;;;;
2022/09/07 08:00:08;;;;;;;4;1.9;;;;;;;20.91;73.92676;939.0562;;;;
2022/09/07 08:02:37;;;;;;;3.5;1.9;;;;;;;20.91;73.98242;939.1268;;;;
2022/09/07 08:05:03;;;;;;;3.6;2.1;;;;;;;20.97;74.59082;939.1459;;;;
2022/09/07 08:07:29;;;;;;;3.1;1.6;;;;;;;20.9;75.10449;939.1697;;;;
2022/09/07 08:09:55;;;;;;;4.2;2.2;;;;;;;20.92;73.58887;939.204;;;;
2022/09/07 08:12:21;;;;;;;4.1;1.5;;;;;;;20.91;73.2002;939.228;;;;
2022/09/07 08:14:46;;;;;;;1.8;1.7;;;;;;;21;74.32617;939.2026;;;;
2022/09/07 08:17:11;;;;;;;1.7;1.4;;;;;;;21.06;72.78027;939.2166;;;;
2022/09/07 08:19:39;;;;;;;2.4;1.9;;;;;;;21.03;74.02637;939.1728;;;;
2022/09/07 08:22:04;;;;;;;7.1;2.2;;;;;;;21.07;77.08691;939.1781;;;;
2022/09/07 08:24:30;;;;;;;4.5;1.6;;;;;;;21.01;80.26855;939.1942;;;;
2022/09/07 08:26:55;;;;;;;4.5;2.3;;;;;;;21.03;81.38477;939.1833;;;;
2022/09/07 08:29:20;;;;;;;4.2;1.9;;;;;;;21.13;81.66992;939.2389;;;;
2022/09/07 08:31:47;;;;;;;4.2;2;;;;;;;21.12;82.27637;939.2335;;;;
2022/09/07 08:34:12;;;;;;;4.8;2;;;;;;;21.03;82.7627;939.0847;;;;
2022/09/07 08:36:41;;;;;;;7.4;2.1;;;;;;;21.08;82.44531;939.1689;;;;
2022/09/07 08:39:06;;;;;;;3.6;1.9;;;;;;;21.23;80.53125;939.125;;;;
2022/09/07 08:41:33;;;;;;;4.6;2.3;;;;;;;21.41;80.6582;939.1497;;;;
2022/09/07 08:43:59;;;;;;;6.8;1.9;;;;;;;21.55;76.47949;939.132;;;;
2022/09/07 08:46:25;;;;;;;5.3;2;;;;;;;21.68;77.84766;939.1996;;;;
2022/09/07 08:48:50;;;;;;;2.3;1.6;;;;;;;22;74.66895;939.1716;;;;
2022/09/07 08:51:15;;;;;;;4.3;2;;;;;;;22.41;74.05859;939.1261;;;;
2022/09/07 08:53:40;;;;;;;3.5;1.9;;;;;;;22.64;70.64648;939.1648;;;;
2022/09/07 08:56:08;;;;;;;3.4;1.8;;;;;;;22.79;68.58008;939.1447;;;;
2022/09/07 08:58:31;;;;;;;6.6;2.1;;;;;;;22.8;66.21094;939.1053;;;;
2022/09/07 09:00:58;;;;;;;4.6;1.8;;;;;;;22.94;70.18848;939.0134;;;;
2022/09/07 09:03:23;;;;;;;3.1;1.8;;;;;;;22.87;66.72461;938.9905;;;;
2022/09/07 09:05:51;;;;;;;5.2;2;;;;;;;22.86;66.94629;939.0658;;;;
2022/09/07 09:08:17;;;;;;;2.3;1.7;;;;;;;22.78;65.73828;939.0662;;;;
2022/09/07 09:10:40;;;;;;;7.8;2.1;;;;;;;22.82;66.15332;939.1287;;;;
2022/09/07 09:13:06;;;;;;;6.4;2;;;;;;;22.63;67.5;939.122;;;;
2022/09/07 09:15:38;;;;;;;6;1.8;;;;;;;22.42;67.4668;939.0584;;;;
2022/09/07 09:18:03;;;;;;;4.1;1.6;;;;;;;22.24;67.80273;939.0289;;;;
2022/09/07 09:20:30;;;;;;;9.2;2.6;;;;;;;22.36;67.93945;938.9906;;;;
2022/09/07 09:22:54;;;;;;;4.3;1.8;;;;;;;22.41;68.73242;938.907;;;;
2022/09/07 09:25:24;;;;;;;9.1;1.9;;;;;;;22.65;70.66016;938.9217;;;;
2022/09/07 09:27:53;;;;;;;5.2;2;;;;;;;22.72;67.30078;938.8461;;;;
2022/09/07 09:30:21;;;;;;;3.9;1.7;;;;;;;22.91;67.04883;938.8398;;;;
2022/09/07 09:32:51;;;;;;;6.6;1.7;;;;;;;23.07;66.93066;938.7836;;;;
2022/09/07 09:35:15;;;;;;;4.8;1.6;;;;;;;23.13;68.89258;938.7885;;;;
2022/09/07 09:37:44;;;;;;;6.1;2;;;;;;;23.25;68.56836;938.7673;;;;
2022/09/07 09:40:17;;;;;;;5;1.8;;;;;;;23.36;69.5625;938.7572;;;;
2022/09/07 09:42:45;;;;;;;3.3;1.6;;;;;;;23.4;68.00391;938.7767;;;;
2022/09/07 09:45:13;;;;;;;3.4;1.6;;;;;;;23.5;66.14941;938.7397;;;;
2022/09/07 09:47:47;;;;;;;3.8;1.6;;;;;;;23.55;66.3916;938.7086;;;;
2022/09/07 09:50:15;;;;;;;10.5;2.6;;;;;;;23.63;68.13379;938.6326;;;;
2022/09/07 09:52:45;;;;;;;2.9;1.6;;;;;;;23.82;65.33691;938.6089;;;;
2022/09/07 09:55:12;;;;;;;4.5;1.8;;;;;;;23.85;64.93066;938.5842;;;;
2022/09/07 09:57:41;;;;;;;2.8;1.5;;;;;;;24.21;64.40527;938.5516;;;;
2022/09/07 10:00:13;;;;;;;5.2;2.3;;;;;;;24.54;61.54199;938.5647;;;;
2022/09/07 10:02:39;;;;;;;4.1;1.7;;;;;;;24.54;58.65332;938.5672;;;;
2022/09/07 10:05:12;;;;;;;5.9;1.7;;;;;;;24.67;60.25;938.5612;;;;
2022/09/07 10:07:37;;;;;;;1.8;1.5;;;;;;;24.55;59.81055;938.544;;;;
2022/09/07 10:10:03;;;;;;;2.8;1.6;;;;;;;24.91;62.15918;938.4911;;;;
2022/09/07 10:12:28;;;;;;;4;2.1;;;;;;;25.07;60.72949;938.4378;;;;
2022/09/07 10:14:56;;;;;;;3.5;1.7;;;;;;;25.1;60.6748;938.4094;;;;
2022/09/07 10:17:26;;;;;;;2.9;1.4;;;;;;;25.23;58.2373;938.3301;;;;
2022/09/07 10:19:51;;;;;;;2.9;1.5;;;;;;;24.91;55.95215;938.2997;;;;
2022/09/07 10:22:16;;;;;;;4.8;2.5;;;;;;;25.03;57.39648;938.2466;;;;
2022/09/07 10:24:41;;;;;;;2.4;1.4;;;;;;;25.23;56.45508;938.247;;;;
2022/09/07 10:27:06;;;;;;;12.5;4.5;;;;;;;25.46;56.73145;938.1995;;;;
2022/09/07 10:29:34;;;;;;;4.9;2.3;;;;;;;25.58;57.16016;938.1394;;;;
2022/09/07 10:31:59;;;;;;;10.5;3;;;;;;;25.24;57.24707;938.0959;;;;
2022/09/07 10:34:24;;;;;;;7.4;2.7;;;;;;;25.42;58.13086;938.0889;;;;
2022/09/07 10:36:53;;;;;;;7;2.7;;;;;;;25.56;57.54688;938.014;;;;
2022/09/07 10:39:19;;;;;;;4.4;2.2;;;;;;;25.52;57.36523;937.9822;;;;
2022/09/07 10:41:44;;;;;;;2.8;1.6;;;;;;;25.79;55.70996;937.9271;;;;
2022/09/07 10:44:13;;;;;;;1.7;1.5;;;;;;;26.08;55.875;937.8725;;;;
2022/09/07 10:46:38;;;;;;;1.9;1.2;;;;;;;26.18;53.6748;937.8894;;;;
2022/09/07 10:49:04;;;;;;;2.2;1.6;;;;;;;26.67;57.19238;937.8065;;;;
2022/09/07 10:51:29;;;;;;;2.4;1.5;;;;;;;27.11;52.58984;937.7877;;;;
2022/09/07 10:53:58;;;;;;;2.2;1.2;;;;;;;27.43;50.36133;937.7739;;;;
2022/09/07 10:59:30;;;;;;;2.4;1.2;;;;;;;27.7;49.63184;937.6177;;;;
2022/09/07 11:02:30;;;;;;;1.9;1.2;;;;;;;27.83;48.75586;937.6102;;;;
2022/09/07 11:04:58;;;;;;;2.8;1.4;;;;;;;28.56;49.00195;937.6241;;;;
2022/09/07 11:07:26;;;;;;;1.9;1.3;;;;;;;28.92;45.8623;937.5356;;;;
2022/09/07 11:09:51;;;;;;;2.1;1.1;;;;;;;28.97;45.03418;937.4792;;;;
2022/09/07 11:13:01;;;;;;;1.9;1.3;;;;;;;28.99;46.94043;937.4376;;;;
2022/09/07 11:15:26;;;;;;;1.7;1.3;;;;;;;28.7;47.33789;937.408;;;;
2022/09/07 11:17:51;;;;;;;3.2;1.1;;;;;;;28.7;47.68262;937.4267;;;;
2022/09/07 11:20:16;;;;;;;2.9;1.2;;;;;;;28.51;46.89063;937.3801;;;;
2022/09/07 11:22:41;;;;;;;2.7;1.5;;;;;;;28.35;48.36035;937.4042;;;;
2022/09/07 11:25:06;;;;;;;1.6;1.2;;;;;;;28.82;47.86328;937.3719;;;;
2022/09/07 11:27:34;;;;;;;3.6;1.6;;;;;;;28.73;48.18555;937.3258;;;;
2022/09/07 11:29:59;;;;;;;3;1.6;;;;;;;28.01;47.8125;937.3134;;;;
2022/09/07 11:32:24;;;;;;;1.9;1.2;;;;;;;27.98;49.27051;937.2651;;;;
2022/09/07 11:34:49;;;;;;;2.2;1.3;;;;;;;28.06;50.43164;937.2836;;;;
2022/09/07 11:37:14;;;;;;;1.6;1.1;;;;;;;28.32;45.62305;937.2723;;;;
2022/09/07 11:39:39;;;;;;;1.3;1.1;;;;;;;29.06;45.95898;937.2023;;;;
2022/09/07 11:42:04;;;;;;;1.4;1.3;;;;;;;29.46;47.01367;937.2586;;;;
2022/09/07 11:44:31;;;;;;;2.1;1.3;;;;;;;29.04;44.7793;937.269;;;;
2022/09/07 11:46:56;;;;;;;1.2;1.1;;;;;;;28.98;43.46289;937.2106;;;;
2022/09/07 11:49:21;;;;;;;2.5;1.5;;;;;;;29.11;44.16602;937.1345;;;;
2022/09/07 11:51:46;;;;;;;1.4;1.2;;;;;;;29.21;43.90234;937.1247;;;;
2022/09/07 11:54:16;;;;;;;1.4;1.1;;;;;;;29.44;44.16211;937.0453;;;;
2022/09/07 11:56:41;;;;;;;2.5;1.3;;;;;;;29.74;43.45313;937.0781;;;;
2022/09/07 11:59:06;;;;;;;2.4;1.3;;;;;;;29.56;46.11816;937.0198;;;;
2022/09/07 12:01:31;;;;;;;1.4;1.2;;;;;;;29.36;43.97656;936.9686;;;;
2022/09/07 12:04:00;;;;;;;1.8;1.2;;;;;;;29.74;44.83691;937.0348;;;;
2022/09/07 12:06:25;;;;;;;1.4;1.3;;;;;;;29.99;44.28906;936.9623;;;;
2022/09/07 12:08:50;;;;;;;1.4;1.1;;;;;;;30.18;45.44141;936.9415;;;;
2022/09/07 12:11:15;;;;;;;2;1.5;;;;;;;29.75;47.53223;936.8922;;;;
2022/09/07 12:13:40;;;;;;;1.9;1.5;;;;;;;29.67;47.10645;936.8563;;;;
2022/09/07 12:16:06;;;;;;;2.9;1.4;;;;;;;29.72;44.41699;936.8378;;;;
2022/09/07 12:18:34;;;;;;;1.3;1.2;;;;;;;29.44;48.59668;936.8053;;;;
2022/09/07 12:20:59;;;;;;;2.1;1.4;;;;;;;29.41;47.88965;936.79;;;;
2022/09/07 12:23:24;;;;;;;2.8;1.3;;;;;;;29.38;49.93652;936.7166;;;;
2022/09/07 12:25:51;;;;;;;1.5;1.4;;;;;;;29.03;48.01563;936.78;;;;
2022/09/07 12:28:17;;;;;;;1.7;1.5;;;;;;;29.04;49.53027;936.7917;;;;
2022/09/07 12:30:42;;;;;;;3.2;1.7;;;;;;;29.16;47.60156;936.7264;;;;
2022/09/07 12:33:07;;;;;;;1.6;1.5;;;;;;;29.16;48.85254;936.7428;;;;
2022/09/07 12:35:37;;;;;;;3.4;2.1;;;;;;;29.01;50.00098;936.7397;;;;
2022/09/07 12:38:02;;;;;;;1.7;1.2;;;;;;;29.12;47.82422;936.707;;;;
2022/09/07 12:40:52;;;;;;;2;1.6;;;;;;;29.78;45.11426;936.7178;;;;
2022/09/07 12:43:17;;;;;;;5.2;1.4;;;;;;;29.86;46.92383;936.7112;;;;
2022/09/07 12:45:42;;;;;;;1.9;1.3;;;;;;;29.64;47.23535;936.6979;;;;
2022/09/07 12:48:07;;;;;;;3.5;1.6;;;;;;;29.47;46.5498;936.7012;;;;
2022/09/07 12:50:32;;;;;;;2.4;1.3;;;;;;;29.87;45.99414;936.6937;;;;
2022/09/07 12:52:57;;;;;;;2.9;1.3;;;;;;;30.66;43.74414;936.6415;;;;
2022/09/07 12:55:24;;;;;;;3.3;1.1;;;;;;;32.11;39.92871;936.5744;;;;
2022/09/07 12:57:49;;;;;;;1.5;1.1;;;;;;;33.78;34.79492;936.5375;;;;
2022/09/07 13:00:14;;;;;;;1.1;0.9;;;;;;;35.18;32.70508;936.5517;;;;
2022/09/07 13:02:39;;;;;;;1;1;;;;;;;36.07;31.92188;936.5323;;;;
2022/09/07 13:05:14;;;;;;;0.9;0.9;;;;;;;37.06;29.88184;936.4235;;;;
2022/09/07 13:07:44;;;;;;;1.2;0.9;;;;;;;37.9;29.19629;936.4077;;;;
2022/09/07 13:10:13;;;;;;;1.5;1.1;;;;;;;38.5;28.32324;936.3524;;;;
2022/09/07 13:12:38;;;;;;;1.6;1.3;;;;;;;38.08;28.98926;936.3251;;;;
2022/09/07 13:15:03;;;;;;;1.6;0.9;;;;;;;37.65;29.26563;936.2915;;;;
2022/09/07 13:28:27;;;;;;;1.2;0.8;;;;;;;36.51;29.33887;936.014;;;;
2022/09/07 13:30:55;;;;;;;2;1;;;;;;;36.05;30.46973;935.9799;;;;
2022/09/07 13:33:20;;;;;;;2.6;0.9;;;;;;;36.31;29.9668;935.9558;;;;
2022/09/07 13:35:49;;;;;;;1.7;0.9;;;;;;;36.36;30.24805;935.9581;;;;
2022/09/07 13:38:14;;;;;;;2.2;1;;;;;;;36.12;31.09082;935.899;;;;
2022/09/07 13:40:41;;;;;;;1.2;0.9;;;;;;;35.85;31.30273;935.9324;;;;
2022/09/07 13:43:07;;;;;;;2.4;0.9;;;;;;;35;32.29395;935.9277;;;;
2022/09/07 13:45:35;;;;;;;0.9;0.8;;;;;;;33.78;33.84473;935.8914;;;;
2022/09/07 13:48:00;;;;;;;1.1;0.9;;;;;;;33.15;33.68945;935.8722;;;;
2022/09/07 13:50:26;;;;;;;1.7;1;;;;;;;32.56;34.66602;935.7839;;;;
2022/09/07 13:52:51;;;;;;;1.6;0.9;;;;;;;31.76;37.38379;935.7416;;;;
2022/09/07 13:55:16;;;;;;;2.6;0.8;;;;;;;31.66;37.68555;935.6929;;;;
2022/09/07 13:57:41;;;;;;;1.6;1;;;;;;;31.35;38.52148;935.7228;;;;
2022/09/07 14:00:12;;;;;;;2.1;1.2;;;;;;;31.11;40.57129;935.7198;;;;
2022/09/07 14:02:41;;;;;;;1.9;1.1;;;;;;;31.09;40.01953;935.7022;;;;
2022/09/07 14:05:06;;;;;;;1.4;1;;;;;;;30.92;39.3584;935.671;;;;
2022/09/07 14:07:36;;;;;;;1.2;1;;;;;;;30.41;40.50781;935.608;;;;
2022/09/07 14:13:41;;;;;;;1.8;1;;;;;;;30.06;41.37109;935.5276;;;;
2022/09/07 14:16:17;;;;;;;3.8;1.1;;;;;;;29.87;43.20313;935.4917;;;;
2022/09/07 14:18:42;;;;;;;1.3;1.1;;;;;;;29.7;46.1084;935.4253;;;;
2022/09/07 14:21:10;;;;;;;2.7;1.2;;;;;;;29.53;43.93359;935.4222;;;;
2022/09/07 14:23:38;;;;;;;2.6;1.3;;;;;;;29.19;45.12695;935.355;;;;
2022/09/07 14:26:00;;;;;;;4;1.6;;;;;;;28.99;44.7373;935.3455;;;;
2022/09/07 14:28:29;;;;;;;2.3;1.1;;;;;;;28.85;44.71191;935.3542;;;;
2022/09/07 14:30:54;;;;;;;1.8;1;;;;;;;28.44;45.06445;935.3279;;;;
2022/09/07 14:33:21;;;;;;;2;1;;;;;;;28.03;45.20215;935.3022;;;;
2022/09/07 14:35:46;;;;;;;2.2;1.1;;;;;;;27.99;45.4707;935.2819;;;;
2022/09/07 14:38:17;;;;;;;2.5;1.1;;;;;;;27.98;46.25391;935.3201;;;;
2022/09/07 14:40:40;;;;;;;2.2;1.2;;;;;;;27.94;46.62988;935.3273;;;;
2022/09/07 14:43:11;;;;;;;2.2;1.1;;;;;;;27.81;46.90039;935.2806;;;;
2022/09/07 14:45:36;;;;;;;2.2;1.1;;;;;;;27.78;47.53906;935.2537;;;;
2022/09/07 14:48:15;;;;;;;2.4;1.2;;;;;;;27.71;47.36523;935.2261;;;;
2022/09/07 14:50:40;;;;;;;1.3;1;;;;;;;27.38;47.80469;935.2333;;;;
2022/09/07 14:53:05;;;;;;;1.5;1.1;;;;;;;27.27;48.55176;935.2614;;;;
2022/09/07 14:55:30;;;;;;;2.3;1.3;;;;;;;27.16;48.89551;935.2831;;;;
2022/09/07 14:57:57;;;;;;;2.4;1.2;;;;;;;26.68;50.22949;935.1917;;;;
2022/09/07 15:00:22;;;;;;;3;1.4;;;;;;;26.51;50.39941;935.2216;;;;
2022/09/07 15:03:36;;;;;;;2.7;1.4;;;;;;;26.31;51.21875;935.2144;;;;
2022/09/07 15:06:02;;;;;;;1.8;1.2;;;;;;;26.46;50.18066;935.1807;;;;
2022/09/07 15:08:27;;;;;;;1.5;1.2;;;;;;;26.42;50.25977;935.1605;;;;
2022/09/07 15:10:53;;;;;;;2.1;1.2;;;;;;;26.43;50.17773;935.1953;;;;
2022/09/07 15:13:21;;;;;;;1.2;1.1;;;;;;;26.28;49.98438;935.1458;;;;
2022/09/07 15:15:48;;;;;;;1.5;1.2;;;;;;;26.27;48.97754;935.1229;;;;
2022/09/07 15:18:13;;;;;;;1.7;1.1;;;;;;;26.3;49.02734;935.0696;;;;
2022/09/07 15:20:39;;;;;;;1.3;1;;;;;;;26.34;49.86035;935.1426;;;;
2022/09/07 15:23:05;;;;;;;1.7;1;;;;;;;26.34;49.97852;935.1992;;;;
2022/09/07 15:25:30;;;;;;;1.5;1.1;;;;;;;26.29;49.77148;935.2246;;;;
2022/09/07 15:27:55;;;;;;;7.3;1.2;;;;;;;26.34;49.99023;935.2749;;;;
2022/09/07 15:30:23;;;;;;;2.4;1.2;;;;;;;26.27;51.66309;935.2747;;;;
2022/09/07 15:32:47;;;;;;;1.3;1;;;;;;;25.9;54.90723;935.3336;;;;
2022/09/07 15:35:18;;;;;;;2.9;1.6;;;;;;;25.56;57.09863;935.3253;;;;
2022/09/07 15:37:44;;;;;;;2.5;1.4;;;;;;;25.23;59.89063;935.303;;;;
2022/09/07 15:40:11;;;;;;;3;1.6;;;;;;;25.15;59.41895;935.2994;;;;
2022/09/07 15:42:40;;;;;;;4;1.3;;;;;;;25.08;61.87598;935.3614;;;;
2022/09/07 15:45:06;;;;;;;5.6;1.5;;;;;;;25.08;62.12402;935.3011;;;;
2022/09/07 15:47:36;;;;;;;3.6;1.7;;;;;;;25.01;61.58301;935.2902;;;;
2022/09/07 15:50:04;;;;;;;3.8;1.4;;;;;;;25.08;59.7041;935.2489;;;;
2022/09/07 15:52:29;;;;;;;1.5;1.4;;;;;;;25.14;58.10645;935.2317;;;;
2022/09/07 15:54:56;;;;;;;2.7;1.3;;;;;;;25.18;57.41602;935.2516;;;;